Time;durP1;ratioP1;P1;durP2;ratioP2;P2;SDS_P1;SDS_P2;PMS_P1;PMS_P2;Temp;Humidity;BMP_temperature;BMP_pressure;BME280_temperature;BME280_humidity;BME280_pressure;Samples;Min_cycle;Max_cycle;Signal;HPM_P1;HPM_P2
2022/03/10 00:00:03;;;;;;;13.07;5.30;;;28.20;78.70;;;;;;5066871;28;20247;-43
2022/03/10 00:02:30;;;;;;;12.25;4.95;;;28.20;78.80;;;;;;5066802;28;20186;-44
2022/03/10 00:04:56;;;;;;;12.75;4.85;;;28.10;78.80;;;;;;5066909;28;20033;-49
2022/03/10 00:07:24;;;;;;;12.93;4.97;;;28.10;78.80;;;;;;5066886;28;20025;-53
2022/03/10 00:09:51;;;;;;;17.02;5.30;;;28.10;79.20;;;;;;5066963;28;20020;-50
2022/03/10 00:12:19;;;;;;;12.93;4.93;;;28.10;79.20;;;;;;5066858;28;20099;-48
2022/03/10 00:14:45;;;;;;;16.55;5.07;;;28.10;78.90;;;;;;5066641;28;20063;-52
2022/03/10 00:17:12;;;;;;;10.55;4.88;;;28.10;79.00;;;;;;5066363;28;20021;-48
2022/03/10 00:19:38;;;;;;;12.88;5.82;;;28.10;78.90;;;;;;5066675;28;20037;-41
2022/03/10 00:22:06;;;;;;;18.38;5.32;;;28.10;78.30;;;;;;5066666;28;20063;-45
2022/03/10 00:24:33;;;;;;;38.58;8.98;;;28.10;78.10;;;;;;5066873;28;20047;-48
2022/03/10 00:26:59;;;;;;;18.85;5.72;;;28.10;78.00;;;;;;5066429;28;20021;-41
2022/03/10 00:29:26;;;;;;;16.45;5.70;;;28.10;77.60;;;;;;5066941;28;20025;-41
2022/03/10 00:31:52;;;;;;;18.55;5.22;;;28.10;77.60;;;;;;5066386;28;20029;-47
2022/03/10 00:34:19;;;;;;;14.02;5.60;;;28.00;77.40;;;;;;5066566;28;20209;-46
2022/03/10 00:36:46;;;;;;;12.10;5.53;;;28.00;77.10;;;;;;5066372;28;20135;-40
2022/03/10 00:39:12;;;;;;;16.23;5.57;;;28.10;77.30;;;;;;5066616;28;20071;-40
2022/03/10 00:41:39;;;;;;;21.63;5.60;;;28.00;77.00;;;;;;5066420;28;20320;-40
2022/03/10 00:44:09;;;;;;;17.13;5.80;;;28.00;76.80;;;;;;5066461;28;20025;-42
2022/03/10 00:46:35;;;;;;;14.20;5.82;;;28.00;76.90;;;;;;5066193;28;20344;-39
2022/03/10 00:49:02;;;;;;;21.48;7.28;;;28.00;76.70;;;;;;5081711;28;20033;-41
2022/03/10 00:51:29;;;;;;;17.60;6.35;;;27.90;76.50;;;;;;5085463;28;20058;-38
2022/03/10 00:53:55;;;;;;;21.42;6.50;;;27.90;76.60;;;;;;5086102;28;20297;-41
2022/03/10 00:56:22;;;;;;;17.58;7.07;;;27.90;76.40;;;;;;5085984;28;20017;-38
2022/03/10 00:58:48;;;;;;;14.27;6.00;;;27.90;76.10;;;;;;5086331;28;20063;-36
2022/03/10 01:01:15;;;;;;;15.60;6.45;;;27.90;76.40;;;;;;5085968;28;20024;-47
2022/03/10 01:03:42;;;;;;;17.13;7.32;;;27.90;76.10;;;;;;5085829;28;20032;-39
2022/03/10 01:06:08;;;;;;;27.45;8.60;;;27.90;76.30;;;;;;5085686;28;20164;-40
2022/03/10 01:08:37;;;;;;;29.33;7.88;;;27.90;76.40;;;;;;5086050;28;20028;-40
2022/03/10 01:11:04;;;;;;;17.73;7.30;;;27.80;76.20;;;;;;5085558;28;20067;-43
2022/03/10 01:13:30;;;;;;;19.08;7.28;;;27.80;76.20;;;;;;5085928;28;20127;-39
2022/03/10 01:15:57;;;;;;;36.97;7.90;;;27.80;76.10;;;;;;5085741;28;20027;-38
2022/03/10 01:18:24;;;;;;;24.23;7.30;;;27.90;76.50;;;;;;5085368;28;20205;-40
2022/03/10 01:20:51;;;;;;;23.30;7.10;;;27.90;76.60;;;;;;5085536;28;20029;-38
2022/03/10 01:23:18;;;;;;;24.35;8.15;;;27.80;76.70;;;;;;5085578;28;20335;-37
2022/03/10 01:25:45;;;;;;;18.27;8.07;;;27.80;76.60;;;;;;5085188;28;20031;-38
2022/03/10 01:28:11;;;;;;;18.00;7.88;;;27.80;76.90;;;;;;5085777;28;20024;-38
2022/03/10 01:30:38;;;;;;;14.73;9.23;;;27.80;76.80;;;;;;5085384;28;20127;-39
2022/03/10 01:33:04;;;;;;;24.15;8.82;;;27.80;76.00;;;;;;5084846;28;20288;-39
2022/03/10 01:35:31;;;;;;;16.33;7.75;;;27.80;75.90;;;;;;5086208;28;20032;-37
2022/03/10 01:37:58;;;;;;;12.35;7.63;;;27.80;75.60;;;;;;5085597;28;20091;-39
2022/03/10 01:40:24;;;;;;;18.17;7.68;;;27.80;75.80;;;;;;5084994;28;20028;-37
2022/03/10 01:42:51;;;;;;;17.88;7.28;;;27.80;75.90;;;;;;5084181;28;20040;-40
2022/03/10 01:45:18;;;;;;;13.30;6.15;;;27.80;76.30;;;;;;5084336;28;20020;-37
2022/03/10 01:47:44;;;;;;;12.68;6.75;;;27.80;76.00;;;;;;5084430;28;20044;-39
2022/03/10 01:50:14;;;;;;;11.88;7.53;;;27.80;76.10;;;;;;5084776;28;20023;-39
2022/03/10 01:52:41;;;;;;;9.80;6.82;;;27.80;76.40;;;;;;5085032;28;20040;-36
2022/03/10 01:55:09;;;;;;;13.05;7.70;;;27.80;76.40;;;;;;5084662;28;20028;-40
2022/03/10 01:57:35;;;;;;;11.77;7.47;;;27.80;76.70;;;;;;5084931;28;20024;-42
2022/03/10 02:00:04;;;;;;;16.58;8.10;;;27.70;76.50;;;;;;5084536;28;20091;-39
2022/03/10 02:02:30;;;;;;;14.93;7.60;;;27.70;76.30;;;;;;5083073;28;20021;-39
2022/03/10 02:04:57;;;;;;;14.57;7.82;;;27.70;76.20;;;;;;5081846;28;20048;-46
2022/03/10 02:10:18;;;;;;;13.07;7.65;;;27.70;75.90;;;;;;5084706;28;20179;-39
2022/03/10 02:12:53;;;;;;;13.82;9.63;;;27.70;75.20;;;;;;5084522;28;20036;-43
2022/03/10 02:18:10;;;;;;;20.00;18.00;;;27.70;75.20;;;;;;5084183;28;20035;-39
2022/03/10 02:20:38;;;;;;;27.17;21.60;;;27.70;74.20;;;;;;5084413;28;20305;-41
2022/03/10 02:23:07;;;;;;;18.60;15.43;;;27.70;74.50;;;;;;5084513;28;20267;-38
2022/03/10 02:25:35;;;;;;;19.75;14.68;;;27.70;74.70;;;;;;5084221;28;20023;-38
2022/03/10 02:28:02;;;;;;;15.68;12.38;;;27.70;74.90;;;;;;5084602;28;20019;-39
2022/03/10 02:30:30;;;;;;;14.93;10.30;;;27.70;75.20;;;;;;5084220;28;20038;-38
2022/03/10 02:32:58;;;;;;;13.55;9.90;;;27.70;74.70;;;;;;5083952;28;20024;-39
2022/03/10 02:35:25;;;;;;;19.13;9.55;;;27.70;74.70;;;;;;5084499;28;20035;-39
2022/03/10 02:37:52;;;;;;;14.10;9.05;;;27.70;74.50;;;;;;5084089;28;20016;-39
2022/03/10 02:40:18;;;;;;;13.80;8.60;;;27.70;74.80;;;;;;5084020;28;20058;-38
2022/03/10 02:42:45;;;;;;;17.60;9.05;;;27.70;75.20;;;;;;5084158;28;20056;-37
2022/03/10 02:45:12;;;;;;;14.00;9.23;;;27.70;75.00;;;;;;5084428;28;20048;-41
2022/03/10 02:47:39;;;;;;;13.10;8.80;;;27.70;75.40;;;;;;5083702;28;20104;-38
2022/03/10 02:50:07;;;;;;;12.02;8.55;;;27.70;75.30;;;;;;5084296;28;20020;-37
2022/03/10 02:52:37;;;;;;;12.30;8.13;;;27.70;75.20;;;;;;5084140;28;20091;-38
2022/03/10 02:55:06;;;;;;;17.38;8.50;;;27.70;75.50;;;;;;5083864;28;20032;-37
2022/03/10 02:57:32;;;;;;;23.60;18.58;;;27.70;75.70;;;;;;5084247;28;20048;-37
2022/03/10 03:00:02;;;;;;;19.25;13.68;;;27.70;75.80;;;;;;5083788;28;20066;-38
2022/03/10 03:02:29;;;;;;;18.73;9.48;;;27.70;76.00;;;;;;5083673;28;20101;-38
2022/03/10 03:04:56;;;;;;;14.93;8.35;;;27.70;76.00;;;;;;5083923;28;20048;-37
2022/03/10 03:07:31;;;;;;;14.13;7.75;;;27.70;76.10;;;;;;5066134;28;20071;-40
2022/03/10 03:09:58;;;;;;;11.60;7.50;;;27.70;76.20;;;;;;5083779;28;20047;-40
2022/03/10 03:12:27;;;;;;;13.98;8.10;;;27.70;76.10;;;;;;5083591;28;20056;-37
2022/03/10 03:14:57;;;;;;;11.88;7.45;;;27.70;76.00;;;;;;5083887;28;20092;-35
2022/03/10 03:17:24;;;;;;;15.43;8.23;;;27.70;75.90;;;;;;5083580;28;20040;-37
2022/03/10 03:19:52;;;;;;;13.43;7.57;;;27.70;75.30;;;;;;5083714;28;20044;-37
2022/03/10 03:22:19;;;;;;;11.43;8.13;;;27.70;75.80;;;;;;5083843;28;20028;-39
2022/03/10 03:24:46;;;;;;;10.75;8.15;;;27.70;75.60;;;;;;5083734;28;20158;-40
2022/03/10 03:27:13;;;;;;;14.13;9.18;;;27.70;75.20;;;;;;5083490;28;20016;-36
2022/03/10 03:29:40;;;;;;;10.63;8.30;;;27.70;74.90;;;;;;5083696;28;20067;-36
2022/03/10 03:32:07;;;;;;;12.38;8.70;;;27.70;74.80;;;;;;5083393;28;20236;-41
2022/03/10 03:34:33;;;;;;;12.77;8.85;;;27.70;74.80;;;;;;5084161;28;20020;-37
2022/03/10 03:37:00;;;;;;;12.73;8.57;;;27.70;74.50;;;;;;5083744;28;20061;-44
2022/03/10 03:39:26;;;;;;;13.68;8.80;;;27.70;74.80;;;;;;5084241;28;20020;-42
2022/03/10 03:41:53;;;;;;;11.52;7.85;;;27.70;75.20;;;;;;5083646;28;20305;-38
2022/03/10 03:44:20;;;;;;;12.60;7.65;;;27.70;75.00;;;;;;5083942;28;20032;-41
2022/03/10 03:46:46;;;;;;;8.57;7.32;;;27.70;75.10;;;;;;5083336;28;20059;-39
2022/03/10 03:49:13;;;;;;;11.02;7.85;;;27.70;75.20;;;;;;5083928;28;20032;-42
2022/03/10 03:51:40;;;;;;;13.90;8.13;;;27.70;75.30;;;;;;5083308;28;20197;-38
2022/03/10 03:54:07;;;;;;;10.30;7.75;;;27.80;75.30;;;;;;5083287;28;20304;-42
2022/03/10 03:56:37;;;;;;;10.57;7.50;;;27.80;75.30;;;;;;5083305;28;20363;-38
2022/03/10 03:59:03;;;;;;;10.02;7.30;;;27.80;75.60;;;;;;5083812;28;20020;-38
2022/03/10 04:01:30;;;;;;;8.07;7.28;;;27.80;75.40;;;;;;5083159;28;20051;-41
2022/03/10 04:03:57;;;;;;;10.23;7.60;;;27.80;75.40;;;;;;5083254;28;20024;-38
2022/03/10 04:06:24;;;;;;;10.57;6.80;;;27.80;75.20;;;;;;5083208;28;20048;-45
2022/03/10 04:08:51;;;;;;;9.48;6.80;;;27.80;75.40;;;;;;5084389;28;20061;-38
2022/03/10 04:11:18;;;;;;;8.02;6.85;;;27.80;75.10;;;;;;5086696;28;20039;-44
2022/03/10 04:13:45;;;;;;;10.48;6.80;;;27.80;75.40;;;;;;5087227;28;20200;-36
2022/03/10 04:16:12;;;;;;;9.60;6.78;;;27.80;75.90;;;;;;5086613;28;20055;-39
2022/03/10 04:18:39;;;;;;;10.45;7.28;;;27.70;76.00;;;;;;5087073;28;20315;-40
2022/03/10 04:21:05;;;;;;;8.27;7.22;;;27.70;76.10;;;;;;5086744;28;20041;-38
2022/03/10 04:23:32;;;;;;;12.55;7.93;;;27.70;76.30;;;;;;5086874;28;20020;-37
2022/03/10 04:25:59;;;;;;;12.48;8.00;;;27.70;76.00;;;;;;5086818;28;20095;-38
2022/03/10 04:28:26;;;;;;;11.43;7.43;;;27.70;76.20;;;;;;5086749;28;20020;-37
2022/03/10 04:30:52;;;;;;;11.45;7.38;;;27.70;76.20;;;;;;5086231;28;20347;-38
2022/03/10 04:33:19;;;;;;;9.75;7.15;;;27.70;76.10;;;;;;5086656;28;20183;-37
2022/03/10 04:35:46;;;;;;;10.60;7.10;;;27.70;76.20;;;;;;5086480;28;20376;-36
2022/03/10 04:38:12;;;;;;;9.65;7.68;;;27.70;76.10;;;;;;5086589;28;20040;-39
2022/03/10 04:40:39;;;;;;;9.23;7.82;;;27.70;75.90;;;;;;5086539;28;20243;-38
2022/03/10 04:43:06;;;;;;;9.23;8.05;;;27.70;75.60;;;;;;5086943;28;20020;-38
2022/03/10 04:45:32;;;;;;;17.60;8.77;;;27.70;75.70;;;;;;5086254;28;20348;-37
2022/03/10 04:47:59;;;;;;;12.20;8.45;;;27.70;75.40;;;;;;5086733;28;20021;-38
2022/03/10 04:50:26;;;;;;;9.73;8.57;;;27.70;75.40;;;;;;5086316;28;20031;-39
2022/03/10 04:52:52;;;;;;;10.23;8.05;;;27.70;75.50;;;;;;5068272;28;20342;-44
2022/03/10 04:55:19;;;;;;;11.48;8.82;;;27.70;75.40;;;;;;5086236;28;20024;-38
2022/03/10 04:57:45;;;;;;;11.50;8.90;;;27.70;75.40;;;;;;5086339;28;20037;-37
2022/03/10 05:00:14;;;;;;;13.18;8.65;;;27.70;75.50;;;;;;5085983;28;20190;-44
2022/03/10 05:02:41;;;;;;;12.45;8.77;;;27.70;75.20;;;;;;5085848;28;20028;-39
2022/03/10 05:05:08;;;;;;;11.45;9.10;;;27.70;75.40;;;;;;5085676;28;20048;-37
2022/03/10 05:07:35;;;;;;;9.82;8.82;;;27.70;75.30;;;;;;5086107;28;20025;-42
2022/03/10 05:10:02;;;;;;;11.02;8.90;;;27.70;75.20;;;;;;5085883;28;20045;-44
2022/03/10 05:12:28;;;;;;;11.68;8.70;;;27.70;75.10;;;;;;5085762;28;20096;-40
2022/03/10 05:14:55;;;;;;;11.40;9.13;;;27.70;75.10;;;;;;5085694;28;20036;-41
2022/03/10 05:17:23;;;;;;;10.90;8.88;;;27.70;75.00;;;;;;5085723;28;20028;-38
2022/03/10 05:19:53;;;;;;;9.70;8.70;;;27.70;75.10;;;;;;5085047;28;20025;-38
2022/03/10 05:22:20;;;;;;;13.70;9.40;;;27.70;74.70;;;;;;5085320;28;20103;-39
2022/03/10 05:24:47;;;;;;;10.55;9.13;;;27.70;74.40;;;;;;5086117;28;20315;-38
2022/03/10 05:27:14;;;;;;;10.77;9.45;;;27.70;74.40;;;;;;5085345;28;20039;-44
2022/03/10 05:29:40;;;;;;;10.73;9.63;;;27.70;74.30;;;;;;5085479;28;20043;-38
2022/03/10 05:32:11;;;;;;;10.95;9.68;;;27.70;74.10;;;;;;5085314;28;20032;-40
2022/03/10 05:34:37;;;;;;;11.02;8.88;;;27.70;74.20;;;;;;5085333;28;20043;-38
2022/03/10 05:37:04;;;;;;;11.57;9.90;;;27.70;74.30;;;;;;5085146;28;20016;-38
2022/03/10 05:39:31;;;;;;;10.70;9.70;;;27.70;74.00;;;;;;5085251;28;20029;-39
2022/03/10 05:41:57;;;;;;;11.27;10.07;;;27.70;74.50;;;;;;5065282;28;20024;-39
2022/03/10 05:44:24;;;;;;;10.35;9.35;;;27.70;74.00;;;;;;5071924;28;20174;-37
2022/03/10 05:46:50;;;;;;;11.70;10.07;;;27.70;74.10;;;;;;5085171;28;20040;-39
2022/03/10 05:49:17;;;;;;;10.80;9.70;;;27.70;73.80;;;;;;5085517;28;20079;-40
2022/03/10 05:51:44;;;;;;;11.00;9.90;;;27.70;73.90;;;;;;5085133;28;20108;-42
2022/03/10 05:54:10;;;;;;;11.88;10.50;;;27.70;74.00;;;;;;5085582;28;20095;-37
2022/03/10 05:56:37;;;;;;;11.90;9.93;;;27.70;73.90;;;;;;5084803;28;20028;-39
2022/03/10 05:59:03;;;;;;;14.20;10.73;;;27.70;74.10;;;;;;5085323;28;20071;-39
2022/03/10 06:01:30;;;;;;;11.73;10.20;;;27.70;74.00;;;;;;5084608;28;20035;-43
2022/03/10 06:03:57;;;;;;;12.52;10.65;;;27.70;74.40;;;;;;5085357;28;20100;-38
2022/03/10 06:06:24;;;;;;;11.40;10.30;;;27.70;74.00;;;;;;5084683;28;20052;-38
2022/03/10 06:08:51;;;;;;;11.55;10.35;;;27.70;74.40;;;;;;5084783;28;20035;-41
2022/03/10 06:11:18;;;;;;;12.38;10.93;;;27.70;74.10;;;;;;5084576;28;20052;-38
2022/03/10 06:13:44;;;;;;;12.80;10.32;;;27.70;74.20;;;;;;5085014;28;20023;-37
2022/03/10 06:16:11;;;;;;;12.57;11.02;;;27.70;74.30;;;;;;5084404;28;20100;-40
2022/03/10 06:18:37;;;;;;;12.00;10.90;;;27.70;74.30;;;;;;5084868;28;20066;-42
2022/03/10 06:21:04;;;;;;;12.32;10.60;;;27.60;74.00;;;;;;5084776;28;20052;-40
2022/03/10 06:23:30;;;;;;;13.07;10.82;;;27.70;74.20;;;;;;5084550;28;20031;-39
2022/03/10 06:25:57;;;;;;;11.90;10.68;;;27.70;74.50;;;;;;5084273;28;20043;-45
2022/03/10 06:28:24;;;;;;;13.15;10.82;;;27.70;74.40;;;;;;5084584;28;20032;-41
2022/03/10 06:30:51;;;;;;;12.68;10.57;;;27.70;74.30;;;;;;5084078;28;20134;-38
2022/03/10 06:33:17;;;;;;;14.05;11.05;;;27.70;74.30;;;;;;5084212;28;20036;-43
2022/03/10 06:35:44;;;;;;;12.77;11.40;;;27.70;74.30;;;;;;5084249;28;20024;-37
2022/03/10 06:38:11;;;;;;;14.90;11.38;;;27.70;74.70;;;;;;5084346;28;20032;-37
2022/03/10 06:40:37;;;;;;;13.35;11.00;;;27.60;74.10;;;;;;5084212;28;20046;-38
2022/03/10 06:43:04;;;;;;;13.80;11.32;;;27.70;74.20;;;;;;5084497;28;20020;-39
2022/03/10 06:45:31;;;;;;;13.50;11.25;;;27.60;74.00;;;;;;5083987;28;20024;-38
2022/03/10 06:47:58;;;;;;;14.40;11.90;;;27.60;74.20;;;;;;5084529;28;20089;-38
2022/03/10 06:50:25;;;;;;;15.65;12.43;;;27.60;74.30;;;;;;5084211;28;20039;-38
2022/03/10 06:52:56;;;;;;;13.80;11.88;;;27.60;74.10;;;;;;5083877;28;20309;-38
2022/03/10 06:55:26;;;;;;;13.43;11.70;;;27.60;74.60;;;;;;5084217;28;20020;-41
2022/03/10 06:57:54;;;;;;;15.25;11.82;;;27.60;74.20;;;;;;5084360;28;20358;-38
2022/03/10 07:00:21;;;;;;;13.55;12.15;;;27.60;74.60;;;;;;5083944;28;20024;-37
2022/03/10 07:02:49;;;;;;;13.70;12.02;;;27.60;74.10;;;;;;5084117;28;20062;-39
2022/03/10 07:05:16;;;;;;;13.50;12.10;;;27.50;74.30;;;;;;5083953;28;20119;-38
2022/03/10 07:07:42;;;;;;;15.07;12.85;;;27.50;74.20;;;;;;5083839;28;20320;-38
2022/03/10 07:10:09;;;;;;;14.55;11.65;;;27.50;74.30;;;;;;5084331;28;20106;-38
2022/03/10 07:12:41;;;;;;;14.07;12.32;;;27.50;74.10;;;;;;5083964;28;20055;-43
2022/03/10 07:15:10;;;;;;;14.35;12.57;;;27.60;73.90;;;;;;5083620;28;20024;-38
2022/03/10 07:17:37;;;;;;;14.40;12.32;;;27.60;73.80;;;;;;5084110;28;20032;-38
2022/03/10 07:20:05;;;;;;;14.30;12.80;;;27.60;73.70;;;;;;5083808;28;20039;-38
2022/03/10 07:22:31;;;;;;;14.35;11.93;;;27.60;73.60;;;;;;5083554;28;20329;-38
2022/03/10 07:24:58;;;;;;;13.95;12.20;;;27.60;73.60;;;;;;5084265;28;20020;-37
2022/03/10 07:27:25;;;;;;;14.60;12.63;;;27.60;73.80;;;;;;5084069;28;20036;-38
2022/03/10 07:29:51;;;;;;;13.77;12.38;;;27.60;73.80;;;;;;5083699;28;20210;-37
2022/03/10 07:32:18;;;;;;;14.07;12.57;;;27.60;74.00;;;;;;5083713;28;20035;-37
2022/03/10 07:34:47;;;;;;;13.27;11.90;;;27.60;73.90;;;;;;5083611;28;20039;-39
2022/03/10 07:37:18;;;;;;;13.63;12.25;;;27.60;74.10;;;;;;5083303;28;20016;-38
2022/03/10 07:39:44;;;;;;;14.13;12.65;;;27.60;74.00;;;;;;5083693;28;20040;-37
2022/03/10 07:42:11;;;;;;;13.50;12.00;;;27.50;73.80;;;;;;5083485;28;20376;-37
2022/03/10 07:44:38;;;;;;;14.25;12.75;;;27.60;74.20;;;;;;5086596;28;20060;-40
2022/03/10 07:47:05;;;;;;;17.83;12.35;;;27.60;74.20;;;;;;5088094;28;20100;-37
2022/03/10 07:49:32;;;;;;;13.80;12.40;;;27.50;74.10;;;;;;5088335;28;20024;-37
2022/03/10 07:52:00;;;;;;;14.63;12.88;;;27.50;73.90;;;;;;5087521;28;20036;-40
2022/03/10 07:54:27;;;;;;;15.02;12.60;;;27.50;74.10;;;;;;5087687;28;20155;-38
2022/03/10 07:56:54;;;;;;;16.35;12.60;;;27.50;74.10;;;;;;5087163;28;20091;-39
2022/03/10 07:59:20;;;;;;;14.05;12.55;;;27.50;74.20;;;;;;5087630;28;20033;-38
2022/03/10 08:01:47;;;;;;;13.82;12.48;;;27.50;74.10;;;;;;5087095;28;20324;-39
2022/03/10 08:04:14;;;;;;;14.98;13.52;;;27.50;73.90;;;;;;5087688;28;20113;-41
2022/03/10 08:06:40;;;;;;;15.70;13.00;;;27.50;74.50;;;;;;5085598;28;20048;-37
2022/03/10 08:09:10;;;;;;;14.32;12.90;;;27.50;74.70;;;;;;5087441;28;20069;-37
2022/03/10 08:11:39;;;;;;;14.80;13.15;;;27.50;74.30;;;;;;5086914;28;20118;-37
2022/03/10 08:14:06;;;;;;;14.00;12.60;;;27.50;74.60;;;;;;5087282;28;20016;-38
2022/03/10 08:16:33;;;;;;;14.50;12.75;;;27.50;74.50;;;;;;5086960;28;20313;-37
2022/03/10 08:19:01;;;;;;;14.52;13.18;;;27.50;74.00;;;;;;5087628;28;20032;-39
2022/03/10 08:21:27;;;;;;;16.33;13.43;;;27.50;74.30;;;;;;5086693;28;20032;-38
2022/03/10 08:23:54;;;;;;;14.15;12.77;;;27.50;74.50;;;;;;5087384;28;20032;-37
2022/03/10 08:26:22;;;;;;;14.40;12.98;;;27.50;74.70;;;;;;5086576;28;20033;-37
2022/03/10 08:28:51;;;;;;;16.05;12.95;;;27.50;74.60;;;;;;5087094;28;20028;-37
2022/03/10 08:31:21;;;;;;;14.50;12.95;;;27.50;75.00;;;;;;5087029;28;20099;-41
2022/03/10 08:33:47;;;;;;;14.63;13.10;;;27.40;75.20;;;;;;5086880;28;20061;-37
2022/03/10 08:36:14;;;;;;;14.55;13.05;;;27.40;75.20;;;;;;5086356;28;20024;-42
2022/03/10 08:38:41;;;;;;;17.15;13.20;;;27.40;75.30;;;;;;5086853;28;20016;-37
2022/03/10 08:41:09;;;;;;;14.63;13.23;;;27.40;75.90;;;;;;5086417;28;20051;-36
2022/03/10 08:43:37;;;;;;;14.88;13.40;;;27.40;76.10;;;;;;5086757;28;20231;-37
2022/03/10 08:46:05;;;;;;;14.18;12.73;;;27.40;76.40;;;;;;5086343;28;20043;-36
2022/03/10 08:48:34;;;;;;;14.75;13.20;;;27.40;76.50;;;;;;5086585;28;20212;-37
2022/03/10 08:51:02;;;;;;;14.52;13.10;;;27.30;76.60;;;;;;5086464;28;20140;-37
2022/03/10 08:53:29;;;;;;;16.00;13.98;;;27.30;76.70;;;;;;5086606;28;20050;-38
2022/03/10 08:55:56;;;;;;;14.93;13.43;;;27.40;76.80;;;;;;5085974;28;20029;-39
2022/03/10 08:58:24;;;;;;;15.45;13.88;;;27.30;76.80;;;;;;5086359;28;20024;-36
2022/03/10 09:00:51;;;;;;;14.38;12.95;;;27.30;76.80;;;;;;5086058;28;20352;-39
2022/03/10 09:03:18;;;;;;;16.42;13.80;;;27.30;76.60;;;;;;5086025;28;20017;-37
2022/03/10 09:05:45;;;;;;;16.02;14.32;;;27.30;76.50;;;;;;5085801;28;20411;-36
2022/03/10 09:08:12;;;;;;;14.85;13.23;;;27.30;76.60;;;;;;5086057;28;20024;-40
2022/03/10 09:10:39;;;;;;;14.88;13.38;;;27.30;76.20;;;;;;5085881;28;20068;-38
2022/03/10 09:13:07;;;;;;;16.02;13.55;;;27.30;76.00;;;;;;5086030;28;20055;-37
2022/03/10 09:15:35;;;;;;;16.73;13.85;;;27.30;75.60;;;;;;5085798;28;20024;-37
2022/03/10 09:18:03;;;;;;;15.32;13.93;;;27.30;76.00;;;;;;5085752;28;20054;-37
2022/03/10 09:20:31;;;;;;;16.55;13.63;;;27.30;76.10;;;;;;5086023;28;20070;-38
2022/03/10 09:22:58;;;;;;;15.63;14.00;;;27.30;75.80;;;;;;5086072;28;20024;-38
2022/03/10 09:25:25;;;;;;;19.42;13.55;;;27.30;75.90;;;;;;5085855;28;20044;-36
2022/03/10 09:27:51;;;;;;;15.45;13.88;;;27.30;75.80;;;;;;5085886;28;20027;-41
2022/03/10 09:30:19;;;;;;;14.32;13.00;;;27.30;75.50;;;;;;5085673;28;20241;-37
2022/03/10 09:32:45;;;;;;;14.85;13.35;;;27.30;75.40;;;;;;5085556;28;20028;-37
2022/03/10 09:35:16;;;;;;;14.50;13.15;;;27.30;75.50;;;;;;5085314;28;20024;-41
2022/03/10 09:37:42;;;;;;;14.85;13.48;;;27.30;75.40;;;;;;5085674;28;20035;-39
2022/03/10 09:40:10;;;;;;;15.05;13.30;;;27.30;75.80;;;;;;5085142;28;20021;-37
2022/03/10 09:42:38;;;;;;;14.65;13.10;;;27.30;75.70;;;;;;5084239;28;20108;-37
2022/03/10 09:45:10;;;;;;;15.32;13.52;;;27.30;75.40;;;;;;5085017;28;20025;-37
2022/03/10 09:47:37;;;;;;;;;;;27.20;75.30;;;;;;5085468;28;20032;-37
2022/03/10 09:50:06;;;;;;;16.70;13.70;;;27.30;75.50;;;;;;5085085;28;19905;-38
2022/03/10 09:52:34;;;;;;;14.45;12.93;;;27.20;75.70;;;;;;5085051;28;19947;-37
2022/03/10 09:55:00;;;;;;;29.05;13.55;;;27.20;75.90;;;;;;5084938;28;20024;-39
2022/03/10 09:57:29;;;;;;;16.17;13.27;;;27.20;75.50;;;;;;5085334;28;20016;-38
2022/03/10 09:59:59;;;;;;;15.65;13.35;;;27.20;75.70;;;;;;5085046;28;20204;-39
2022/03/10 10:02:29;;;;;;;15.18;13.63;;;27.20;75.70;;;;;;5084887;28;20028;-38
2022/03/10 10:04:56;;;;;;;14.13;12.73;;;27.20;75.70;;;;;;5085166;28;20056;-38
2022/03/10 10:07:29;;;;;;;16.30;12.20;;;27.30;75.60;;;;;;5084443;28;20065;-43
2022/03/10 10:09:58;;;;;;;15.63;13.07;;;27.30;75.80;;;;;;5084597;28;20216;-41
2022/03/10 10:12:29;;;;;;;14.90;13.50;;;27.30;76.00;;;;;;5084791;28;20082;-38
2022/03/10 10:14:58;;;;;;;15.60;13.10;;;27.30;75.80;;;;;;5084568;28;20296;-42
2022/03/10 10:17:32;;;;;;;14.90;12.63;;;27.20;75.90;;;;;;5084446;28;20089;-38
2022/03/10 10:20:00;;;;;;;21.85;13.23;;;27.20;75.90;;;;;;5084914;28;20020;-39
2022/03/10 10:22:28;;;;;;;16.67;12.35;;;27.20;76.00;;;;;;5084527;28;20036;-38
2022/03/10 10:25:00;;;;;;;13.25;12.05;;;27.20;76.20;;;;;;5084578;28;20028;-45
2022/03/10 10:27:28;;;;;;;16.20;13.03;;;27.20;76.30;;;;;;5084384;28;20035;-39
2022/03/10 10:30:00;;;;;;;15.95;13.05;;;27.20;76.20;;;;;;5084173;28;20113;-39
2022/03/10 10:32:32;;;;;;;17.30;12.60;;;27.30;76.40;;;;;;5084142;28;20032;-38
2022/03/10 10:35:10;;;;;;;21.45;13.63;;;27.30;76.90;;;;;;5084107;28;20025;-41
2022/03/10 10:37:38;;;;;;;17.30;12.68;;;27.30;77.20;;;;;;5084263;28;20341;-44
2022/03/10 10:40:07;;;;;;;18.42;13.90;;;27.30;77.30;;;;;;5084252;28;20021;-37
2022/03/10 10:42:36;;;;;;;15.52;13.60;;;27.20;78.20;;;;;;5084477;28;20033;-39
2022/03/10 10:45:33;;;;;;;19.83;14.02;;;27.20;78.80;;;;;;5084144;28;20028;-39
2022/03/10 10:48:08;;;;;;;23.23;15.80;;;27.20;79.10;;;;;;5084402;28;20036;-42
2022/03/10 10:50:47;;;;;;;20.85;14.50;;;27.20;79.60;;;;;;5084081;28;20051;-41
2022/03/10 10:53:31;;;;;;;17.75;14.82;;;27.10;79.70;;;;;;5084489;28;20033;-40
2022/03/10 10:55:59;;;;;;;22.13;15.13;;;27.10;79.90;;;;;;5084069;28;20042;-40
2022/03/10 10:58:26;;;;;;;23.60;16.17;;;27.10;80.20;;;;;;5084358;28;20021;-36
2022/03/10 11:00:53;;;;;;;27.37;17.93;;;27.10;80.50;;;;;;5083817;28;20020;-37
2022/03/10 11:03:22;;;;;;;22.08;15.48;;;27.10;81.10;;;;;;5084030;28;19904;-37
2022/03/10 11:05:50;;;;;;;22.35;15.77;;;27.10;80.80;;;;;;5083854;28;20043;-40
2022/03/10 11:08:20;;;;;;;23.73;16.23;;;27.10;80.70;;;;;;5083904;28;20029;-38
2022/03/10 11:10:48;;;;;;;23.83;16.35;;;27.00;80.70;;;;;;5083539;28;20033;-36
2022/03/10 11:13:15;;;;;;;21.75;15.45;;;27.10;80.80;;;;;;5084036;28;20017;-38
2022/03/10 11:15:43;;;;;;;18.90;15.25;;;27.10;80.90;;;;;;5083768;28;20032;-42
2022/03/10 11:18:12;;;;;;;17.48;15.32;;;27.10;81.10;;;;;;5083688;28;20178;-38
2022/03/10 11:20:47;;;;;;;20.60;15.68;;;27.10;81.00;;;;;;5086363;28;20025;-38
2022/03/10 11:23:46;;;;;;;17.70;14.63;;;27.00;81.30;;;;;;5086261;28;20033;-37
2022/03/10 11:26:37;;;;;;;18.50;14.45;;;27.00;81.30;;;;;;5086067;28;20081;-36
2022/03/10 11:29:05;;;;;;;20.08;15.10;;;27.00;81.50;;;;;;5086545;28;20035;-42
2022/03/10 11:31:33;;;;;;;18.98;14.77;;;27.00;82.10;;;;;;5085897;28;20032;-40
2022/03/10 11:33:59;;;;;;;16.10;14.45;;;26.90;82.10;;;;;;5086245;28;20079;-42
2022/03/10 11:36:30;;;;;;;18.75;15.07;;;26.90;82.40;;;;;;5087853;28;20020;-38
2022/03/10 11:38:59;;;;;;;18.33;14.07;;;26.90;82.60;;;;;;5087868;28;20028;-42
2022/03/10 11:41:45;;;;;;;17.13;14.98;;;26.90;82.30;;;;;;5087370;28;20025;-37
2022/03/10 11:44:13;;;;;;;16.63;14.88;;;26.90;82.60;;;;;;5087916;28;20340;-38
2022/03/10 11:46:52;;;;;;;16.35;14.75;;;26.90;82.80;;;;;;5087293;28;20020;-40
2022/03/10 11:49:19;;;;;;;22.77;15.13;;;26.90;82.90;;;;;;5087743;28;20036;-39
2022/03/10 11:51:54;;;;;;;21.08;14.75;;;26.90;82.90;;;;;;5087323;28;20040;-43
2022/03/10 11:54:26;;;;;;;17.50;14.68;;;26.90;82.90;;;;;;5087595;28;20218;-41
2022/03/10 11:56:54;;;;;;;17.02;14.68;;;26.90;83.30;;;;;;5087141;28;20084;-36
2022/03/10 11:59:27;;;;;;;19.42;14.65;;;26.90;82.70;;;;;;5087389;28;20044;-42
2022/03/10 12:01:58;;;;;;;18.77;14.65;;;26.90;82.70;;;;;;5087427;28;20028;-38
2022/03/10 12:04:35;;;;;;;17.08;15.00;;;26.90;82.80;;;;;;5087276;28;20301;-38
2022/03/10 12:07:03;;;;;;;22.00;15.70;;;26.90;83.40;;;;;;5087001;28;20044;-40
2022/03/10 12:09:33;;;;;;;22.95;16.80;;;26.90;82.70;;;;;;5087418;28;20228;-39
2022/03/10 12:12:20;;;;;;;20.15;16.35;;;27.00;83.10;;;;;;5086744;28;20032;-38
2022/03/10 12:14:49;;;;;;;19.67;15.25;;;27.00;83.10;;;;;;5086774;28;20328;-38
2022/03/10 12:17:46;;;;;;;17.70;15.73;;;27.00;83.20;;;;;;5086640;28;20023;-40
2022/03/10 12:20:12;;;;;;;17.58;15.30;;;27.00;83.10;;;;;;5086465;28;20028;-40
2022/03/10 12:22:39;;;;;;;16.42;14.80;;;27.00;83.50;;;;;;5086691;28;20020;-44
2022/03/10 12:25:20;;;;;;;17.92;14.60;;;27.00;83.40;;;;;;5086658;28;20032;-40
2022/03/10 12:27:55;;;;;;;20.65;15.60;;;27.00;83.30;;;;;;5086526;28;20208;-42
2022/03/10 12:30:26;;;;;;;17.45;15.65;;;27.00;83.70;;;;;;5086045;28;20107;-39
2022/03/10 12:32:54;;;;;;;19.70;14.47;;;27.00;83.20;;;;;;5086467;28;20027;-39
2022/03/10 12:35:29;;;;;;;17.73;15.00;;;27.00;83.20;;;;;;5086422;28;20266;-38
2022/03/10 12:37:56;;;;;;;18.63;15.90;;;27.10;83.20;;;;;;5086604;28;20020;-37
2022/03/10 12:40:25;;;;;;;16.77;14.80;;;27.00;83.80;;;;;;5086282;28;20024;-38
2022/03/10 12:42:58;;;;;;;16.23;14.52;;;27.10;83.70;;;;;;5086624;28;20218;-39